createdAt,value
2022-07-28T00:00:16.622Z,101966.94
2022-07-28T00:02:44.002Z,101966.56
2022-07-28T00:05:12.039Z,101965.78
2022-07-28T00:07:40.741Z,101965.44
2022-07-28T00:10:09.743Z,101972.09
2022-07-28T00:12:37.515Z,101966.41
2022-07-28T00:15:07.361Z,101971.75
2022-07-28T00:17:34.696Z,101969.50
2022-07-28T00:20:02.105Z,101972.19
2022-07-28T00:22:29.434Z,101960.22
2022-07-28T00:24:58.391Z,101959.81
2022-07-28T00:27:25.837Z,101959.44
2022-07-28T00:29:53.145Z,101963.13
2022-07-28T00:32:20.705Z,101965.41
2022-07-28T00:34:48.620Z,101963.59
2022-07-28T00:37:16.026Z,101967.31
2022-07-28T00:39:43.421Z,101966.94
2022-07-28T00:42:12.482Z,101969.78
2022-07-28T00:44:42.036Z,101968.97
2022-07-28T00:47:09.853Z,101967.72
2022-07-28T00:49:37.921Z,101966.47
2022-07-28T00:52:07.478Z,101957.44
2022-07-28T00:54:35.381Z,101967.72
2022-07-28T00:57:02.842Z,101965.44
2022-07-28T00:59:33.804Z,101962.75
2022-07-28T01:02:03.468Z,101961.72
2022-07-28T01:04:31.429Z,101963.97
2022-07-28T01:07:23.479Z,101971.38
2022-07-28T01:10:06.287Z,101976.31
2022-07-28T01:12:55.647Z,101968.09
2022-07-28T01:15:31.111Z,101966.47
2022-07-28T01:18:06.925Z,101971.00
2022-07-28T01:20:39.707Z,101968.53
2022-07-28T01:23:38.843Z,101969.38
2022-07-28T01:26:27.416Z,101966.69
2022-07-28T01:29:14.363Z,101966.94
2022-07-28T01:31:51.689Z,101967.13
2022-07-28T01:34:28.820Z,101966.50
2022-07-28T01:37:06.274Z,101964.84
2022-07-28T01:39:37.615Z,101959.09
2022-07-28T01:42:08.879Z,101954.97
2022-07-28T01:44:43.375Z,101960.09
2022-07-28T01:47:14.291Z,101950.66
2022-07-28T01:49:45.868Z,101951.69
2022-07-28T01:52:17.503Z,101943.91
2022-07-28T01:54:48.050Z,101947.63
2022-07-28T01:57:18.395Z,101942.50
2022-07-28T01:59:48.381Z,101944.38
2022-07-28T02:02:21.265Z,101941.50
2022-07-28T02:04:51.480Z,101945.63
2022-07-28T02:07:22.444Z,101943.13
2022-07-28T02:09:51.585Z,101941.50
2022-07-28T02:12:21.002Z,101928.31
2022-07-28T02:14:51.483Z,101936.56
2022-07-28T02:17:30.848Z,101924.19
2022-07-28T02:20:00.413Z,101929.53
2022-07-28T02:22:28.449Z,101928.28
2022-07-28T02:24:56.587Z,101935.84
2022-07-28T02:27:34.800Z,101932.50
2022-07-28T02:30:08.449Z,101931.84
2022-07-28T02:32:42.526Z,101930.34
2022-07-28T02:35:31.325Z,101933.03
2022-07-28T02:38:06.469Z,101935.03
2022-07-28T02:40:38.887Z,101929.41
2022-07-28T02:43:11.085Z,101929.59
2022-07-28T02:45:43.468Z,101934.28
2022-07-28T02:48:17.425Z,101931.19
2022-07-28T02:50:47.372Z,101936.94
2022-07-28T02:53:16.803Z,101929.53
2022-07-28T02:55:49.727Z,101929.06
2022-07-28T02:58:22.478Z,101932.97
2022-07-28T03:00:52.278Z,101940.56
2022-07-28T03:03:22.648Z,101946.38
2022-07-28T03:05:51.034Z,101940.22
2022-07-28T03:08:18.853Z,101944.38
2022-07-28T03:10:46.191Z,101939.47
2022-07-28T03:13:13.716Z,101944.97
2022-07-28T03:15:41.208Z,101954.22
2022-07-28T03:18:09.438Z,101948.41
2022-07-28T03:20:38.209Z,101956.25
2022-07-28T03:23:05.661Z,101961.22
2022-07-28T03:25:41.991Z,101957.59
2022-07-28T03:28:17.853Z,101969.59
2022-07-28T03:30:54.156Z,101966.72
2022-07-28T03:33:21.684Z,101965.09
2022-07-28T03:35:53.613Z,101967.19
2022-07-28T03:38:25.082Z,101962.25
2022-07-28T03:40:56.993Z,101970.69
2022-07-28T03:45:55.686Z,101974.66
2022-07-28T03:48:29.227Z,101978.31
2022-07-28T03:50:58.292Z,101977.13
2022-07-28T03:53:28.516Z,101987.81
2022-07-28T03:55:56.205Z,101981.00
2022-07-28T03:58:28.925Z,101986.13
2022-07-28T04:00:57.328Z,101979.34
2022-07-28T04:03:43.374Z,101978.72
2022-07-28T04:06:13.494Z,101979.59
2022-07-28T04:08:40.968Z,101988.66
2022-07-28T04:11:08.313Z,101983.28
2022-07-28T04:16:05.756Z,101972.53
2022-07-28T04:18:33.373Z,101979.94
2022-07-28T04:21:00.659Z,101972.53
2022-07-28T04:23:30.733Z,101978.09
2022-07-28T04:25:58.248Z,101976.66
2022-07-28T04:28:25.743Z,101974.19
2022-07-28T04:30:53.337Z,101978.72
2022-07-28T04:33:20.833Z,101990.66
2022-07-28T04:35:52.655Z,101984.28
2022-07-28T04:38:20.862Z,101983.03
2022-07-28T04:40:50.115Z,101977.03
2022-07-28T04:43:17.961Z,101983.41
2022-07-28T04:45:53.943Z,101977.38
2022-07-28T04:48:23.240Z,101984.19
2022-07-28T04:50:52.719Z,101978.38
2022-07-28T04:53:20.953Z,101979.00
2022-07-28T04:55:51.556Z,101982.06
2022-07-28T04:58:19.583Z,101976.88
2022-07-28T05:00:50.360Z,101970.63
2022-07-28T05:03:18.823Z,101973.47
2022-07-28T05:05:47.449Z,101973.47
2022-07-28T05:08:26.358Z,101968.53
2022-07-28T05:10:56.598Z,101974.44
2022-07-28T05:13:26.820Z,101974.81
2022-07-28T05:15:56.528Z,101971.03
2022-07-28T05:18:23.948Z,101974.47
2022-07-28T05:20:51.335Z,101969.06
2022-07-28T05:23:18.672Z,101976.44
2022-07-28T05:25:46.858Z,101968.41
2022-07-28T05:28:15.566Z,101973.56
2022-07-28T05:30:44.648Z,101975.19
2022-07-28T05:33:14.526Z,101975.13
2022-07-28T05:35:41.970Z,101975.19
2022-07-28T05:38:11.131Z,101976.50
2022-07-28T05:40:39.891Z,101980.03
2022-07-28T05:43:07.312Z,101977.88
2022-07-28T05:45:36.081Z,101982.66
2022-07-28T05:48:03.519Z,101976.69
2022-07-28T05:50:31.127Z,101971.31
2022-07-28T05:52:58.390Z,101982.41
2022-07-28T05:55:26.282Z,101993.75
2022-07-28T05:57:54.263Z,101992.00
2022-07-28T06:00:23.644Z,101997.03
2022-07-28T06:02:52.517Z,101994.44
2022-07-28T06:05:22.047Z,101998.84
2022-07-28T06:07:51.566Z,101995.53
2022-07-28T06:10:21.766Z,101997.97
2022-07-28T06:12:53.199Z,101998.34
2022-07-28T06:15:22.982Z,101996.41
2022-07-28T06:17:55.297Z,101998.59
2022-07-28T06:20:25.283Z,102007.56
2022-07-28T06:22:55.441Z,102009.13
2022-07-28T06:25:25.373Z,102006.59
2022-07-28T06:27:55.354Z,102015.25
2022-07-28T06:30:23.840Z,102013.78
2022-07-28T06:32:53.197Z,102004.41
2022-07-28T06:35:20.964Z,102007.88
2022-07-28T06:37:50.708Z,102012.91
2022-07-28T06:40:19.796Z,102014.47
2022-07-28T06:42:47.696Z,102002.47
2022-07-28T06:45:21.400Z,102006.13
2022-07-28T06:47:49.165Z,102004.22
2022-07-28T06:50:24.811Z,102007.75
2022-07-28T06:52:53.023Z,102002.34
2022-07-28T06:55:20.465Z,102007.09
2022-07-28T06:57:48.212Z,102014.59
2022-07-28T07:00:16.289Z,102002.03
2022-07-28T07:02:44.009Z,102019.59
2022-07-28T07:05:13.878Z,102014.47
2022-07-28T07:07:43.624Z,102019.63
2022-07-28T07:10:11.925Z,102023.66
2022-07-28T07:12:39.706Z,102022.28
2022-07-28T07:15:09.195Z,102023.34
2022-07-28T07:17:37.665Z,102020.31
2022-07-28T07:20:18.510Z,102015.38
2022-07-28T07:22:48.119Z,102018.31
2022-07-28T07:25:18.225Z,102020.66
2022-07-28T07:27:49.553Z,102028.72
2022-07-28T07:30:17.640Z,102021.81
2022-07-28T07:32:45.545Z,102025.88
2022-07-28T07:35:13.146Z,102022.91
2022-07-28T07:37:41.050Z,102017.53
2022-07-28T07:40:11.129Z,102017.66
2022-07-28T07:42:38.689Z,102017.31
2022-07-28T07:45:08.134Z,102016.84
2022-07-28T07:47:35.708Z,102011.66
2022-07-28T07:50:04.528Z,102014.63
2022-07-28T07:52:32.398Z,101998.53
2022-07-28T07:54:59.787Z,102004.44
2022-07-28T07:57:29.786Z,102003.56
2022-07-28T07:59:57.237Z,102011.84
2022-07-28T08:02:24.674Z,102008.22
2022-07-28T08:04:52.128Z,102003.00
2022-07-28T08:07:22.066Z,102006.47
2022-07-28T08:09:49.972Z,102018.72
2022-07-28T08:12:17.438Z,102010.78
2022-07-28T08:14:54.288Z,102017.28
2022-07-28T08:17:25.617Z,102015.31
2022-07-28T08:19:53.776Z,102012.16
2022-07-28T08:22:21.260Z,102013.28
2022-07-28T08:24:48.660Z,102012.31
2022-07-28T08:27:19.258Z,102012.97
2022-07-28T08:29:46.611Z,102017.22
2022-07-28T08:32:15.989Z,102004.28
2022-07-28T08:34:43.529Z,101999.81
2022-07-28T08:37:11.191Z,102008.50
2022-07-28T08:39:38.555Z,102010.56
2022-07-28T08:42:12.091Z,102003.97
2022-07-28T08:44:47.977Z,102003.81
2022-07-28T08:47:19.559Z,101999.84
2022-07-28T08:49:50.162Z,102003.91
2022-07-28T08:52:21.794Z,101998.19
2022-07-28T08:54:51.462Z,101997.31
2022-07-28T08:57:25.866Z,102006.91
2022-07-28T08:59:53.442Z,102007.88
2022-07-28T09:02:26.292Z,102003.97
2022-07-28T09:04:55.268Z,102005.13
2022-07-28T09:07:24.588Z,102001.19
2022-07-28T09:09:52.222Z,102000.03
2022-07-28T09:12:27.135Z,101997.94
2022-07-28T09:14:55.104Z,101999.13
2022-07-28T09:17:23.895Z,101994.41
2022-07-28T09:19:51.486Z,101998.94
2022-07-28T09:22:18.823Z,101998.75
2022-07-28T09:24:46.597Z,101986.56
2022-07-28T09:27:16.069Z,101993.31
2022-07-28T09:29:49.240Z,101992.75
2022-07-28T09:32:20.079Z,101999.19
2022-07-28T09:34:51.713Z,101996.66
2022-07-28T09:37:26.801Z,101991.44
2022-07-28T09:39:59.549Z,101987.59
2022-07-28T09:42:46.963Z,101992.44
2022-07-28T09:45:23.268Z,101986.59
2022-07-28T09:48:11.317Z,101987.53
2022-07-28T09:50:41.872Z,101982.38
2022-07-28T09:53:24.508Z,101973.22
2022-07-28T09:55:58.324Z,101986.88
2022-07-28T09:58:26.869Z,101978.38
2022-07-28T10:01:05.631Z,101981.75
2022-07-28T10:03:36.185Z,101981.41
2022-07-28T10:06:10.517Z,101983.69
2022-07-28T10:08:44.711Z,101979.97
2022-07-28T10:11:15.120Z,101979.03
2022-07-28T10:14:00.849Z,101985.59
2022-07-28T10:16:31.290Z,101985.53
2022-07-28T10:19:01.543Z,101979.16
2022-07-28T10:21:36.230Z,101982.78
2022-07-28T10:24:07.462Z,101981.66
2022-07-28T10:26:45.018Z,101974.38
2022-07-28T10:29:16.134Z,101976.63
2022-07-28T10:31:51.034Z,101966.94
2022-07-28T10:34:24.452Z,101965.44
2022-07-28T10:36:56.345Z,101965.22
2022-07-28T10:39:29.054Z,101961.16
2022-07-28T10:41:57.894Z,101967.63
2022-07-28T10:44:27.055Z,101967.06
2022-07-28T10:46:55.789Z,101964.38
2022-07-28T10:49:32.725Z,101956.25
2022-07-28T10:52:08.773Z,101945.25
2022-07-28T10:54:57.523Z,101963.13
2022-07-28T10:57:25.654Z,101960.78
2022-07-28T11:00:20.851Z,101954.59
2022-07-28T11:02:58.898Z,101950.78
2022-07-28T11:05:37.490Z,101949.91
2022-07-28T11:08:26.855Z,101955.53
2022-07-28T11:11:00.897Z,101952.91
2022-07-28T11:13:40.919Z,101949.69
2022-07-28T11:16:22.129Z,101948.94
2022-07-28T11:19:36.861Z,101949.22
2022-07-28T11:22:22.380Z,101950.81
2022-07-28T11:25:20.897Z,101950.28
2022-07-28T11:28:04.254Z,101950.81
2022-07-28T11:30:54.325Z,101944.31
2022-07-28T11:33:22.586Z,101953.25
2022-07-28T11:35:58.832Z,101949.19
2022-07-28T11:38:27.396Z,101941.06
2022-07-28T11:40:57.021Z,101937.75
2022-07-28T11:43:39.102Z,101948.63
2022-07-28T11:46:34.259Z,101944.84
2022-07-28T11:49:24.875Z,101952.72
2022-07-28T11:52:20.928Z,101942.94
2022-07-28T11:54:53.145Z,101944.84
2022-07-28T11:57:26.980Z,101941.59
2022-07-28T12:00:00.983Z,101936.16
2022-07-28T12:02:33.996Z,101940.47
2022-07-28T12:05:13.214Z,101928.50
2022-07-28T12:07:48.937Z,101924.69
2022-07-28T12:13:28.068Z,101933.03
2022-07-28T12:15:55.539Z,101926.28
2022-07-28T12:18:24.844Z,101938.31
2022-07-28T12:20:53.759Z,101929.84
2022-07-28T12:23:45.650Z,101925.97
2022-07-28T12:26:31.890Z,101922.94
2022-07-28T12:29:04.434Z,101918.06
2022-07-28T12:31:37.839Z,101923.00
2022-07-28T12:34:07.323Z,101919.66
2022-07-28T12:36:36.123Z,101910.53
2022-07-28T12:39:08.354Z,101909.88
2022-07-28T12:41:39.839Z,101909.22
2022-07-28T12:44:08.889Z,101910.72
2022-07-28T12:46:36.529Z,101899.41
2022-07-28T12:49:04.122Z,101903.81
2022-07-28T12:51:37.617Z,101906.84
2022-07-28T12:54:08.249Z,101904.69
2022-07-28T12:56:46.580Z,101897.66
2022-07-28T12:59:18.324Z,101901.03
2022-07-28T13:01:51.382Z,101896.13
2022-07-28T13:04:40.729Z,101900.03
2022-07-28T13:07:10.345Z,101895.56
2022-07-28T13:09:47.124Z,101890.19
2022-07-28T13:12:19.715Z,101887.22
2022-07-28T13:14:54.298Z,101878.34
2022-07-28T13:17:25.354Z,101887.22
2022-07-28T13:20:04.900Z,101887.94
2022-07-28T13:22:33.352Z,101889.88
2022-07-28T13:25:01.493Z,101888.06
2022-07-28T13:27:29.229Z,101881.31
2022-07-28T13:29:57.956Z,101884.91
2022-07-28T13:32:25.760Z,101881.13
2022-07-28T13:34:53.496Z,101874.63
2022-07-28T13:37:21.471Z,101873.25
2022-07-28T13:39:54.188Z,101869.13
2022-07-28T13:42:23.688Z,101865.84
2022-07-28T13:44:51.498Z,101867.81
2022-07-28T13:47:20.271Z,101869.75
2022-07-28T13:49:47.828Z,101865.44
2022-07-28T13:52:27.913Z,101870.34
2022-07-28T13:55:04.013Z,101869.81
2022-07-28T13:57:31.906Z,101864.69
2022-07-28T14:00:07.510Z,101872.59
2022-07-28T14:02:37.305Z,101862.53
2022-07-28T14:05:05.876Z,101859.75
2022-07-28T14:07:33.347Z,101862.63
2022-07-28T14:10:01.712Z,101858.75
2022-07-28T14:12:29.938Z,101848.88
2022-07-28T14:14:57.258Z,101852.72
2022-07-28T14:17:42.482Z,101852.81
2022-07-28T14:20:16.198Z,101849.84
2022-07-28T14:22:44.471Z,101841.44
2022-07-28T14:25:19.402Z,101842.50
2022-07-28T14:27:49.617Z,101856.13
2022-07-28T14:30:18.637Z,101845.28
2022-07-28T14:32:46.170Z,101847.47
2022-07-28T14:35:15.300Z,101858.41
2022-07-28T14:40:30.558Z,101849.78
2022-07-28T14:42:57.931Z,101848.72
2022-07-28T14:45:25.245Z,101854.16
2022-07-28T14:47:52.611Z,101850.63
2022-07-28T14:50:21.658Z,101850.38
2022-07-28T14:52:49.064Z,101841.16
2022-07-28T14:55:17.017Z,101842.53
2022-07-28T14:57:50.366Z,101832.47
2022-07-28T15:00:24.654Z,101831.66
2022-07-28T15:02:53.165Z,101825.97
2022-07-28T15:05:23.183Z,101832.44
2022-07-28T15:07:52.335Z,101828.94
2022-07-28T15:10:20.553Z,101825.41
2022-07-28T15:12:48.198Z,101823.25
2022-07-28T15:15:16.005Z,101830.28
2022-07-28T15:17:43.429Z,101818.56
2022-07-28T15:20:11.730Z,101815.53
2022-07-28T15:22:40.837Z,101815.53
2022-07-28T15:25:09.432Z,101811.00
2022-07-28T15:27:44.420Z,101808.91
2022-07-28T15:30:14.240Z,101804.66
2022-07-28T15:32:54.584Z,101800.72
2022-07-28T15:35:24.381Z,101804.59
2022-07-28T15:37:53.265Z,101800.28
2022-07-28T15:40:20.847Z,101802.53
2022-07-28T15:42:48.416Z,101799.56
2022-07-28T15:45:16.037Z,101806.38
2022-07-28T15:47:43.420Z,101804.19
2022-07-28T15:50:11.273Z,101797.44
2022-07-28T15:52:38.582Z,101792.00
2022-07-28T15:55:08.849Z,101802.59
2022-07-28T15:57:37.914Z,101793.66
2022-07-28T16:00:07.887Z,101795.31
2022-07-28T16:02:35.343Z,101795.84
2022-07-28T16:05:02.941Z,101796.63
2022-07-28T16:07:31.155Z,101796.59
2022-07-28T16:09:59.915Z,101793.88
2022-07-28T16:12:29.810Z,101793.25
2022-07-28T16:14:58.277Z,101794.81
2022-07-28T16:17:26.239Z,101794.81
2022-07-28T16:19:54.067Z,101793.22
2022-07-28T16:22:21.924Z,101783.19
2022-07-28T16:24:50.766Z,101783.97
2022-07-28T16:27:18.399Z,101782.91
2022-07-28T16:29:49.401Z,101783.41
2022-07-28T16:32:17.209Z,101793.13
2022-07-28T16:34:44.916Z,101783.25
2022-07-28T16:37:16.052Z,101795.69
2022-07-28T16:39:47.332Z,101791.03
2022-07-28T16:42:14.899Z,101790.81
2022-07-28T16:44:42.695Z,101797.31
2022-07-28T16:47:12.326Z,101794.56
2022-07-28T16:49:45.520Z,101790.16
2022-07-28T16:52:14.011Z,101789.59
2022-07-28T16:54:41.795Z,101785.81
2022-07-28T16:57:09.295Z,101788.78
2022-07-28T16:59:47.026Z,101789.38
2022-07-28T17:02:19.218Z,101794.28
2022-07-28T17:04:47.303Z,101795.13
2022-07-28T17:07:14.892Z,101797.88
2022-07-28T17:09:42.326Z,101793.88
2022-07-28T17:12:09.958Z,101792.56
2022-07-28T17:14:37.509Z,101801.25
2022-07-28T17:17:05.363Z,101801.88
2022-07-28T17:19:34.171Z,101799.22
2022-07-28T17:22:04.825Z,101795.47
2022-07-28T17:24:32.205Z,101795.50
2022-07-28T17:29:47.055Z,101798.81
2022-07-28T17:32:14.782Z,101802.09
2022-07-28T17:34:43.536Z,101792.59
2022-07-28T17:37:10.901Z,101795.56
2022-07-28T17:39:38.260Z,101784.72
2022-07-28T17:42:05.995Z,101789.00
2022-07-28T17:44:33.818Z,101792.25
2022-07-28T17:47:02.188Z,101789.50
2022-07-28T17:49:30.016Z,101788.13
2022-07-28T17:51:58.823Z,101790.28
2022-07-28T17:54:27.423Z,101788.59
2022-07-28T17:56:57.367Z,101786.97
2022-07-28T17:59:26.609Z,101788.81
2022-07-28T18:02:07.828Z,101792.00
2022-07-28T18:04:35.180Z,101789.78
2022-07-28T18:07:04.042Z,101792.72
2022-07-28T18:09:31.463Z,101794.84
2022-07-28T18:11:58.980Z,101790.72
2022-07-28T18:14:28.303Z,101790.63
2022-07-28T18:16:56.465Z,101798.09
2022-07-28T18:19:24.498Z,101801.28
2022-07-28T18:21:52.144Z,101798.53
2022-07-28T18:24:22.456Z,101802.81
2022-07-28T18:26:50.761Z,101800.09
2022-07-28T18:29:19.222Z,101806.84
2022-07-28T18:31:47.206Z,101804.91
2022-07-28T18:34:15.760Z,101802.66
2022-07-28T18:36:43.664Z,101799.91
2022-07-28T18:39:11.021Z,101800.38
2022-07-28T18:41:46.270Z,101800.34
2022-07-28T18:44:16.843Z,101799.13
2022-07-28T18:46:45.046Z,101783.38
2022-07-28T18:49:12.640Z,101785.72
2022-07-28T18:51:40.026Z,101792.69
2022-07-28T18:54:13.399Z,101799.13
2022-07-28T18:56:42.333Z,101796.09
2022-07-28T18:59:09.970Z,101797.91
2022-07-28T19:01:37.370Z,101794.88
2022-07-28T19:04:05.062Z,101794.25
2022-07-28T19:06:32.432Z,101790.88
2022-07-28T19:08:59.745Z,101787.28
2022-07-28T19:11:27.223Z,101791.00
2022-07-28T19:13:56.022Z,101791.50
2022-07-28T19:16:23.382Z,101800.91
2022-07-28T19:18:50.868Z,101804.34
2022-07-28T19:21:18.262Z,101798.06
2022-07-28T19:23:46.481Z,101799.06
2022-07-28T19:26:13.955Z,101805.72
2022-07-28T19:28:42.308Z,101801.88
2022-07-28T19:31:11.092Z,101800.97
2022-07-28T19:33:43.726Z,101797.16
2022-07-28T19:36:13.454Z,101806.81
2022-07-28T19:38:41.340Z,101814.00
2022-07-28T19:41:09.152Z,101808.25
2022-07-28T19:43:36.578Z,101807.09
2022-07-28T19:46:04.212Z,101811.38
2022-07-28T19:48:34.267Z,101812.34
2022-07-28T19:51:01.798Z,101822.81
2022-07-28T19:53:32.015Z,101820.84
2022-07-28T19:55:59.802Z,101825.31
2022-07-28T19:58:28.263Z,101815.28
2022-07-28T20:00:56.549Z,101813.31
2022-07-28T20:04:00.612Z,101816.75
2022-07-28T20:06:13.297Z,101816.91
2022-07-28T20:08:40.708Z,101818.69
2022-07-28T20:11:08.226Z,101816.72
2022-07-28T20:13:35.747Z,101817.19
2022-07-28T20:16:03.060Z,101813.38
2022-07-28T20:18:30.523Z,101818.84
2022-07-28T20:20:57.848Z,101820.41
2022-07-28T20:23:26.588Z,101818.44
2022-07-28T20:25:53.933Z,101819.72
2022-07-28T20:28:21.452Z,101830.41
2022-07-28T20:30:49.188Z,101824.91
2022-07-28T20:33:16.905Z,101825.41
2022-07-28T20:35:44.362Z,101832.91
2022-07-28T20:38:11.708Z,101824.22
2022-07-28T20:40:40.447Z,101827.16
2022-07-28T20:43:07.747Z,101835.50
2022-07-28T20:45:35.173Z,101837.59
2022-07-28T20:48:02.594Z,101842.66
2022-07-28T20:50:29.936Z,101844.97
2022-07-28T20:52:57.219Z,101836.91
2022-07-28T20:55:24.639Z,101842.78
2022-07-28T20:57:55.842Z,101846.53
2022-07-28T21:00:25.241Z,101845.38
2022-07-28T21:02:53.089Z,101845.25
2022-07-28T21:05:34.577Z,101845.72
2022-07-28T21:08:06.109Z,101851.00
2022-07-28T21:10:34.370Z,101856.00
2022-07-28T21:13:03.100Z,101853.53
2022-07-28T21:15:30.714Z,101855.66
2022-07-28T21:17:59.094Z,101849.09
2022-07-28T21:20:26.706Z,101852.25
2022-07-28T21:22:54.093Z,101857.06
2022-07-28T21:25:22.023Z,101854.84
2022-07-28T21:28:08.042Z,101856.94
2022-07-28T21:30:36.900Z,101853.69
2022-07-28T21:33:04.331Z,101862.22
2022-07-28T21:35:31.678Z,101850.88
2022-07-28T21:37:59.445Z,101851.94
2022-07-28T21:40:27.087Z,101856.72
2022-07-28T21:42:54.527Z,101851.81
2022-07-28T21:45:22.446Z,101857.66
2022-07-28T21:47:51.152Z,101852.97
2022-07-28T21:50:18.496Z,101852.28
2022-07-28T21:52:45.815Z,101845.75
2022-07-28T21:55:13.194Z,101859.84
2022-07-28T21:57:40.480Z,101863.03
2022-07-28T22:00:12.654Z,101866.16
2022-07-28T22:02:41.874Z,101870.38
2022-07-28T22:05:11.324Z,101871.41
2022-07-28T22:07:38.633Z,101872.47
2022-07-28T22:10:06.979Z,101873.53
2022-07-28T22:12:34.385Z,101871.28
2022-07-28T22:15:01.715Z,101866.38
2022-07-28T22:17:29.094Z,101872.78
2022-07-28T22:19:56.437Z,101875.09
2022-07-28T22:22:25.172Z,101871.59
2022-07-28T22:24:52.538Z,101871.22
2022-07-28T22:27:19.932Z,101876.84
2022-07-28T22:29:51.867Z,101880.56
2022-07-28T22:32:26.802Z,101884.31
2022-07-28T22:34:57.591Z,101884.31
2022-07-28T22:37:26.571Z,101885.94
2022-07-28T22:39:54.811Z,101883.94
2022-07-28T22:42:22.350Z,101881.50
2022-07-28T22:44:49.678Z,101888.34
2022-07-28T22:47:17.004Z,101884.06
2022-07-28T22:49:44.307Z,101882.41
2022-07-28T22:52:11.785Z,101877.50
2022-07-28T22:54:40.925Z,101881.69
2022-07-28T22:57:08.378Z,101895.59
2022-07-28T22:59:38.590Z,101887.75
2022-07-28T23:02:07.765Z,101884.47
2022-07-28T23:04:37.824Z,101889.00
2022-07-28T23:07:05.723Z,101880.94
2022-07-28T23:09:41.261Z,101892.19
2022-07-28T23:12:10.493Z,101896.94
2022-07-28T23:14:37.906Z,101888.53
2022-07-28T23:17:05.573Z,101891.41
2022-07-28T23:19:32.983Z,101894.09
2022-07-28T23:22:00.434Z,101892.25
2022-07-28T23:24:27.817Z,101898.44
2022-07-28T23:26:56.559Z,101896.78
2022-07-28T23:29:23.854Z,101899.47
2022-07-28T23:31:51.303Z,101896.00
2022-07-28T23:34:19.014Z,101888.13
2022-07-28T23:36:47.974Z,101891.06
2022-07-28T23:39:15.408Z,101896.66
2022-07-28T23:41:42.798Z,101894.00
2022-07-28T23:44:11.485Z,101891.75
2022-07-28T23:46:38.843Z,101890.09
2022-07-28T23:49:07.735Z,101895.94
2022-07-28T23:51:47.943Z,101891.00
2022-07-28T23:54:16.860Z,101893.09
2022-07-28T23:56:44.775Z,101893.31
2022-07-28T23:59:14.617Z,101894.38
